createdAt,value
2023-08-17T00:00:52.244Z,29.09
2023-08-17T00:03:18.674Z,29.15
2023-08-17T00:05:45.134Z,29.19
2023-08-17T00:08:11.527Z,29.19
2023-08-17T00:10:37.959Z,29.17
2023-08-17T00:13:04.427Z,29.11
2023-08-17T00:15:33.761Z,29.10
2023-08-17T00:18:00.249Z,29.10
2023-08-17T00:20:26.715Z,29.06
2023-08-17T00:22:53.271Z,29.06
2023-08-17T00:25:19.699Z,29.00
2023-08-17T00:27:46.132Z,28.99
2023-08-17T00:30:12.596Z,28.94
2023-08-17T00:32:39.016Z,28.94
2023-08-17T00:35:05.398Z,28.90
2023-08-17T00:37:32.138Z,28.92
2023-08-17T00:39:58.574Z,28.93
2023-08-17T00:42:25.057Z,28.90
2023-08-17T00:44:51.544Z,28.89
2023-08-17T00:47:17.961Z,28.87
2023-08-17T00:49:44.373Z,28.88
2023-08-17T00:52:10.858Z,28.86
2023-08-17T00:54:37.280Z,28.83
2023-08-17T00:57:03.765Z,28.76
2023-08-17T00:59:36.422Z,28.66
2023-08-17T01:02:03.354Z,28.59
2023-08-17T01:04:29.787Z,28.52
2023-08-17T01:06:56.232Z,28.49
2023-08-17T01:09:22.677Z,28.54
2023-08-17T01:11:49.088Z,28.60
2023-08-17T01:14:15.636Z,28.63
2023-08-17T01:16:42.101Z,28.65
2023-08-17T01:19:08.579Z,28.65
2023-08-17T01:21:35.034Z,28.63
2023-08-17T01:24:01.469Z,28.57
2023-08-17T01:26:27.909Z,28.54
2023-08-17T01:28:54.403Z,28.53
2023-08-17T01:31:20.866Z,28.55
2023-08-17T01:33:47.290Z,28.55
2023-08-17T01:36:16.423Z,28.55
2023-08-17T01:38:42.873Z,28.52
2023-08-17T01:41:09.271Z,28.48
2023-08-17T01:43:35.697Z,28.47
2023-08-17T01:46:02.141Z,28.44
2023-08-17T01:48:28.788Z,28.40
2023-08-17T01:50:55.220Z,28.31
2023-08-17T01:53:22.689Z,28.25
2023-08-17T01:55:49.105Z,28.24
2023-08-17T01:58:16.492Z,28.23
2023-08-17T02:00:43.024Z,28.26
2023-08-17T02:03:09.494Z,28.25
2023-08-17T02:05:35.955Z,28.27
2023-08-17T02:08:02.387Z,28.28
2023-08-17T02:10:28.822Z,28.30
2023-08-17T02:13:02.142Z,28.32
2023-08-17T02:15:35.318Z,28.28
2023-08-17T02:18:01.800Z,28.27
2023-08-17T02:20:28.263Z,28.23
2023-08-17T02:22:54.707Z,28.14
2023-08-17T02:25:21.134Z,28.09
2023-08-17T02:27:47.597Z,28.09
2023-08-17T02:30:14.007Z,28.07
2023-08-17T02:32:40.485Z,28.02
2023-08-17T02:35:06.926Z,27.97
2023-08-17T02:37:33.327Z,27.97
2023-08-17T02:39:59.763Z,27.98
2023-08-17T02:42:26.229Z,27.99
2023-08-17T02:44:52.725Z,27.98
2023-08-17T02:47:19.154Z,27.96
2023-08-17T02:49:45.580Z,27.92
2023-08-17T02:52:12.035Z,27.86
2023-08-17T02:54:38.466Z,27.86
2023-08-17T02:57:04.878Z,27.86
2023-08-17T02:59:31.341Z,27.83
2023-08-17T03:01:57.903Z,27.83
2023-08-17T03:04:24.387Z,27.83
2023-08-17T03:06:50.847Z,27.77
2023-08-17T03:09:17.259Z,27.73
2023-08-17T03:11:43.676Z,27.74
2023-08-17T03:14:10.117Z,27.74
2023-08-17T03:16:36.605Z,27.73
2023-08-17T03:19:03.089Z,27.71
2023-08-17T03:21:29.522Z,27.65
2023-08-17T03:23:55.956Z,27.60
2023-08-17T03:26:22.395Z,27.54
2023-08-17T03:28:49.059Z,27.55
2023-08-17T03:31:15.578Z,27.54
2023-08-17T03:33:42.099Z,27.51
2023-08-17T03:36:08.523Z,27.46
2023-08-17T03:38:34.985Z,27.46
2023-08-17T03:41:01.389Z,27.47
2023-08-17T03:43:27.841Z,27.46
2023-08-17T03:45:54.268Z,27.48
2023-08-17T03:48:20.743Z,27.50
2023-08-17T03:50:47.140Z,27.51
2023-08-17T03:53:13.558Z,27.54
2023-08-17T03:55:40.096Z,27.53
2023-08-17T03:58:06.526Z,27.54
2023-08-17T04:00:33.011Z,27.56
2023-08-17T04:02:59.485Z,27.56
2023-08-17T04:05:25.940Z,27.50
2023-08-17T04:07:52.373Z,27.47
2023-08-17T04:10:18.831Z,27.47
2023-08-17T04:12:45.277Z,27.48
2023-08-17T04:15:11.691Z,27.48
2023-08-17T04:17:38.173Z,27.47
2023-08-17T04:20:04.639Z,27.47
2023-08-17T04:22:31.079Z,27.43
2023-08-17T04:24:57.509Z,27.42
2023-08-17T04:27:24.089Z,27.42
2023-08-17T04:29:50.808Z,27.46
2023-08-17T04:32:17.208Z,27.48
2023-08-17T04:34:43.644Z,27.48
2023-08-17T04:37:10.144Z,27.49
2023-08-17T04:39:36.567Z,27.49
2023-08-17T04:42:02.975Z,27.48
2023-08-17T04:44:29.391Z,27.45
2023-08-17T04:46:55.830Z,27.45
2023-08-17T04:49:22.241Z,27.42
2023-08-17T04:51:48.700Z,27.39
2023-08-17T04:54:15.176Z,27.38
2023-08-17T04:56:41.605Z,27.37
2023-08-17T04:59:08.048Z,27.38
2023-08-17T05:01:34.500Z,27.40
2023-08-17T05:04:01.065Z,27.41
2023-08-17T05:06:27.493Z,27.43
2023-08-17T05:08:53.970Z,27.42
2023-08-17T05:11:20.512Z,27.37
2023-08-17T05:13:46.983Z,27.30
2023-08-17T05:16:13.446Z,27.23
2023-08-17T05:18:39.889Z,27.16
2023-08-17T05:21:06.301Z,26.98
2023-08-17T05:23:32.709Z,26.94
2023-08-17T05:25:59.182Z,26.94
2023-08-17T05:28:25.597Z,26.97
2023-08-17T05:30:52.128Z,27.05
2023-08-17T05:33:18.652Z,26.96
2023-08-17T05:35:45.151Z,26.88
2023-08-17T05:38:11.644Z,26.70
2023-08-17T05:40:38.065Z,26.45
2023-08-17T05:43:04.537Z,26.40
2023-08-17T05:45:30.988Z,26.17
2023-08-17T05:47:57.508Z,26.11
2023-08-17T05:50:24.025Z,26.01
2023-08-17T05:52:50.443Z,25.81
2023-08-17T05:55:16.854Z,25.68
2023-08-17T05:57:43.314Z,25.64
2023-08-17T06:00:09.745Z,25.72
2023-08-17T06:02:36.148Z,25.73
2023-08-17T06:05:02.652Z,25.73
2023-08-17T06:07:29.208Z,25.87
2023-08-17T06:09:55.840Z,26.03
2023-08-17T06:12:22.302Z,26.19
2023-08-17T06:14:48.720Z,26.31
2023-08-17T06:17:15.218Z,26.34
2023-08-17T06:19:44.108Z,26.47
2023-08-17T06:22:10.508Z,26.61
2023-08-17T06:24:37.015Z,26.72
2023-08-17T06:27:03.470Z,26.87
2023-08-17T06:29:30.002Z,26.97
2023-08-17T06:31:56.417Z,27.09
2023-08-17T06:34:22.869Z,27.18
2023-08-17T06:36:49.290Z,27.26
2023-08-17T06:39:15.712Z,27.31
2023-08-17T06:41:42.245Z,27.34
2023-08-17T06:44:08.666Z,27.38
2023-08-17T06:46:35.264Z,27.42
2023-08-17T06:49:01.769Z,27.45
2023-08-17T06:51:28.276Z,27.49
2023-08-17T06:53:54.992Z,27.50
2023-08-17T06:56:21.525Z,27.52
2023-08-17T06:58:48.035Z,27.53
2023-08-17T07:01:14.454Z,27.55
2023-08-17T07:03:40.898Z,27.54
2023-08-17T07:06:07.458Z,27.54
2023-08-17T07:08:33.912Z,27.52
2023-08-17T07:11:00.353Z,27.47
2023-08-17T07:13:26.819Z,27.48
2023-08-17T07:15:53.483Z,27.51
2023-08-17T07:18:20.746Z,27.53
2023-08-17T07:20:47.164Z,27.54
2023-08-17T07:23:13.557Z,27.57
2023-08-17T07:25:39.959Z,27.54
2023-08-17T07:28:06.359Z,27.53
2023-08-17T07:30:32.904Z,27.51
2023-08-17T07:32:59.453Z,27.49
2023-08-17T07:35:26.036Z,27.44
2023-08-17T07:38:03.529Z,27.47
2023-08-17T07:40:34.070Z,27.47
2023-08-17T07:43:03.255Z,27.51
2023-08-17T07:45:29.648Z,27.53
2023-08-17T07:47:58.332Z,27.55
2023-08-17T07:50:24.781Z,27.53
2023-08-17T07:52:51.179Z,27.49
2023-08-17T07:55:17.606Z,27.47
2023-08-17T07:57:44.024Z,27.47
2023-08-17T08:00:10.440Z,27.42
2023-08-17T08:02:36.933Z,27.42
2023-08-17T08:05:03.520Z,27.42
2023-08-17T08:07:30.123Z,27.27
2023-08-17T08:09:56.670Z,27.27
2023-08-17T08:12:23.086Z,27.31
2023-08-17T08:14:49.558Z,27.36
2023-08-17T08:17:16.067Z,27.37
2023-08-17T08:19:42.475Z,27.37
2023-08-17T08:22:08.905Z,27.34
2023-08-17T08:24:37.893Z,27.31
2023-08-17T08:27:05.158Z,27.31
2023-08-17T08:29:31.669Z,27.32
2023-08-17T08:31:58.076Z,27.30
2023-08-17T08:34:24.476Z,27.32
2023-08-17T08:36:50.895Z,27.35
2023-08-17T08:39:17.333Z,27.36
2023-08-17T08:41:43.848Z,27.37
2023-08-17T08:44:10.311Z,27.39
2023-08-17T08:46:37.964Z,27.43
2023-08-17T08:49:04.526Z,27.49
2023-08-17T08:51:30.933Z,27.54
2023-08-17T08:53:57.348Z,27.58
2023-08-17T08:56:23.810Z,27.62
2023-08-17T08:58:54.629Z,27.63
2023-08-17T09:01:21.465Z,27.63
2023-08-17T09:03:47.914Z,27.69
2023-08-17T09:06:14.382Z,27.76
2023-08-17T09:08:40.809Z,27.81
2023-08-17T09:11:07.271Z,27.87
2023-08-17T09:13:33.693Z,27.86
2023-08-17T09:16:00.142Z,27.87
2023-08-17T09:18:26.599Z,27.89
2023-08-17T09:20:56.018Z,27.90
2023-08-17T09:23:22.451Z,27.92
2023-08-17T09:25:48.894Z,27.92
2023-08-17T09:28:15.347Z,27.93
2023-08-17T09:30:41.856Z,27.95
2023-08-17T09:33:08.454Z,27.97
2023-08-17T09:35:34.890Z,27.99
2023-08-17T09:38:01.318Z,28.01
2023-08-17T09:40:27.759Z,28.01
2023-08-17T09:42:54.166Z,27.98
2023-08-17T09:45:20.660Z,27.92
2023-08-17T09:47:47.123Z,27.83
2023-08-17T09:50:13.513Z,27.78
2023-08-17T09:52:39.935Z,27.80
2023-08-17T09:55:08.630Z,27.80
2023-08-17T09:57:35.363Z,27.79
2023-08-17T10:00:01.845Z,27.69
2023-08-17T10:02:28.491Z,27.69
2023-08-17T10:04:55.308Z,27.72
2023-08-17T10:07:21.858Z,27.78
2023-08-17T10:09:50.119Z,27.76
2023-08-17T10:12:16.870Z,27.76
2023-08-17T10:14:43.309Z,27.80
2023-08-17T10:17:09.759Z,27.85
2023-08-17T10:19:36.176Z,27.89
2023-08-17T10:22:02.676Z,27.96
2023-08-17T10:24:29.191Z,27.98
2023-08-17T10:26:55.607Z,27.95
2023-08-17T10:29:22.010Z,27.98
2023-08-17T10:31:48.473Z,27.92
2023-08-17T10:34:14.949Z,27.91
2023-08-17T10:36:41.384Z,27.85
2023-08-17T10:39:12.594Z,27.84
2023-08-17T10:41:39.099Z,27.90
2023-08-17T10:44:05.536Z,27.97
2023-08-17T10:46:32.116Z,28.06
2023-08-17T10:48:58.870Z,28.14
2023-08-17T10:51:25.308Z,28.21
2023-08-17T10:53:51.744Z,28.26
2023-08-17T10:56:18.185Z,28.29
2023-08-17T10:58:44.621Z,28.30
2023-08-17T11:01:11.043Z,28.31
2023-08-17T11:03:37.531Z,28.33
2023-08-17T11:06:03.984Z,28.39
2023-08-17T11:08:30.432Z,28.47
2023-08-17T11:10:56.886Z,28.55
2023-08-17T11:13:24.800Z,28.62
2023-08-17T11:15:51.228Z,28.69
2023-08-17T11:18:17.754Z,28.70
2023-08-17T11:20:44.176Z,28.61
2023-08-17T11:23:10.888Z,28.47
2023-08-17T11:25:37.389Z,28.42
2023-08-17T11:28:03.802Z,28.46
2023-08-17T11:30:30.327Z,28.49
2023-08-17T11:32:56.782Z,28.52
2023-08-17T11:35:23.243Z,28.53
2023-08-17T11:37:49.660Z,28.48
2023-08-17T11:40:16.062Z,28.48
2023-08-17T11:42:42.466Z,28.56
2023-08-17T11:45:08.894Z,28.59
2023-08-17T11:47:35.379Z,28.53
2023-08-17T11:50:14.638Z,28.51
2023-08-17T11:52:46.805Z,28.57
2023-08-17T11:55:13.300Z,28.57
2023-08-17T11:57:39.752Z,28.58
2023-08-17T12:00:06.158Z,28.60
2023-08-17T12:02:32.589Z,28.52
2023-08-17T12:04:59.047Z,28.53
2023-08-17T12:07:25.495Z,28.54
2023-08-17T12:09:51.982Z,28.57
2023-08-17T12:12:18.411Z,28.57
2023-08-17T12:14:46.142Z,28.63
2023-08-17T12:17:12.928Z,28.69
2023-08-17T12:19:39.356Z,28.79
2023-08-17T12:22:05.793Z,28.83
2023-08-17T12:24:32.203Z,28.91
2023-08-17T12:26:58.740Z,28.76
2023-08-17T12:29:25.205Z,28.76
2023-08-17T12:31:51.729Z,28.70
2023-08-17T12:34:18.166Z,28.68
2023-08-17T12:36:44.688Z,28.73
2023-08-17T12:39:11.126Z,28.79
2023-08-17T12:41:37.560Z,28.90
2023-08-17T12:44:04.008Z,28.98
2023-08-17T12:46:32.559Z,29.07
2023-08-17T12:48:59.230Z,29.14
2023-08-17T12:51:25.643Z,29.20
2023-08-17T12:53:52.191Z,29.18
2023-08-17T12:56:18.588Z,29.07
2023-08-17T12:58:45.013Z,28.99
2023-08-17T13:01:11.458Z,28.92
2023-08-17T13:03:37.944Z,28.92
2023-08-17T13:06:04.513Z,28.97
2023-08-17T13:08:31.085Z,28.75
2023-08-17T13:10:57.536Z,28.44
2023-08-17T13:13:24.018Z,28.47
2023-08-17T13:15:53.527Z,28.47
2023-08-17T13:18:19.980Z,28.61
2023-08-17T13:20:46.460Z,28.71
2023-08-17T13:23:12.872Z,28.75
2023-08-17T13:25:41.475Z,28.72
2023-08-17T13:28:07.903Z,28.66
2023-08-17T13:30:34.325Z,28.74
2023-08-17T13:33:00.813Z,28.84
2023-08-17T13:35:27.289Z,28.92
2023-08-17T13:37:53.686Z,28.92
2023-08-17T13:40:20.081Z,28.84
2023-08-17T13:42:46.520Z,28.85
2023-08-17T13:45:13.032Z,28.91
2023-08-17T13:47:39.515Z,28.90
2023-08-17T13:50:06.075Z,28.92
2023-08-17T13:52:32.559Z,28.95
2023-08-17T13:55:00.972Z,29.00
2023-08-17T13:57:27.440Z,29.03
2023-08-17T13:59:53.883Z,29.08
2023-08-17T14:02:22.495Z,29.14
2023-08-17T14:04:48.921Z,29.18
2023-08-17T14:07:15.332Z,29.23
2023-08-17T14:09:48.716Z,29.31
2023-08-17T14:12:20.904Z,29.31
2023-08-17T14:14:47.352Z,29.33
2023-08-17T14:17:13.822Z,29.33
2023-08-17T14:19:40.274Z,29.30
2023-08-17T14:22:06.668Z,29.06
2023-08-17T14:24:33.321Z,28.93
2023-08-17T14:26:59.815Z,28.80
2023-08-17T14:29:28.057Z,28.70
2023-08-17T14:31:56.204Z,28.72
2023-08-17T14:34:22.968Z,28.74
2023-08-17T14:36:49.367Z,28.76
2023-08-17T14:39:18.216Z,28.82
2023-08-17T14:41:46.654Z,28.85
2023-08-17T14:44:13.303Z,28.84
2023-08-17T14:46:39.707Z,28.89
2023-08-17T14:49:06.147Z,29.00
2023-08-17T14:51:32.536Z,29.07
2023-08-17T14:53:58.981Z,29.15
2023-08-17T14:56:25.404Z,29.08
2023-08-17T14:58:51.850Z,29.23
2023-08-17T15:01:19.003Z,29.31
2023-08-17T15:03:45.767Z,29.41
2023-08-17T15:06:23.863Z,29.38
2023-08-17T15:08:58.556Z,29.27
2023-08-17T15:11:25.020Z,29.31
2023-08-17T15:13:51.504Z,29.40
2023-08-17T15:16:18.062Z,29.47
2023-08-17T15:18:44.552Z,29.59
2023-08-17T15:21:11.001Z,29.67
2023-08-17T15:23:37.472Z,29.73
2023-08-17T15:26:04.023Z,29.71
2023-08-17T15:28:32.829Z,29.81
2023-08-17T15:30:59.258Z,29.84
2023-08-17T15:33:25.660Z,29.76
2023-08-17T15:35:52.132Z,29.78
2023-08-17T15:38:18.645Z,29.85
2023-08-17T15:40:45.062Z,29.89
2023-08-17T15:43:11.544Z,29.99
2023-08-17T15:45:38.046Z,30.10
2023-08-17T15:48:04.586Z,30.20
2023-08-17T15:50:31.107Z,30.30
2023-08-17T15:52:57.513Z,30.36
2023-08-17T15:55:23.968Z,30.39
2023-08-17T15:57:51.042Z,30.48
2023-08-17T16:00:18.079Z,30.63
2023-08-17T16:02:44.561Z,31.11
2023-08-17T16:05:11.065Z,32.02
2023-08-17T16:07:37.571Z,33.08
2023-08-17T16:10:04.061Z,34.13
2023-08-17T16:12:30.552Z,34.91
2023-08-17T16:14:56.970Z,35.43
2023-08-17T16:17:23.403Z,35.73
2023-08-17T16:19:49.857Z,35.52
2023-08-17T16:22:17.635Z,35.12
2023-08-17T16:24:44.139Z,34.48
2023-08-17T16:27:10.559Z,33.94
2023-08-17T16:29:38.977Z,33.68
2023-08-17T16:32:09.103Z,33.55
2023-08-17T16:34:35.733Z,33.27
2023-08-17T16:37:02.285Z,33.08
2023-08-17T16:39:28.742Z,33.01
2023-08-17T16:41:55.197Z,33.07
2023-08-17T16:44:21.654Z,33.04
2023-08-17T16:46:48.191Z,33.04
2023-08-17T16:49:14.790Z,33.12
2023-08-17T16:51:41.261Z,33.08
2023-08-17T16:54:07.673Z,33.17
2023-08-17T16:56:34.153Z,33.21
2023-08-17T16:59:02.169Z,33.25
2023-08-17T17:01:29.093Z,33.23
2023-08-17T17:03:58.002Z,33.18
2023-08-17T17:06:24.478Z,33.02
2023-08-17T17:08:50.926Z,32.84
2023-08-17T17:11:17.415Z,32.83
2023-08-17T17:13:43.876Z,32.73
2023-08-17T17:16:10.385Z,32.57
2023-08-17T17:18:36.909Z,32.45
2023-08-17T17:21:03.360Z,32.33
2023-08-17T17:23:29.837Z,32.27
2023-08-17T17:25:56.290Z,32.17
2023-08-17T17:28:22.798Z,32.15
2023-08-17T17:30:49.225Z,32.17
2023-08-17T17:33:15.729Z,32.18
2023-08-17T17:35:42.165Z,32.20
2023-08-17T17:38:08.612Z,32.22
2023-08-17T17:40:35.029Z,32.24
2023-08-17T17:43:01.468Z,32.23
2023-08-17T17:45:27.864Z,32.20
2023-08-17T17:47:54.457Z,32.14
2023-08-17T17:50:21.001Z,32.04
2023-08-17T17:52:48.834Z,31.96
2023-08-17T17:55:15.362Z,31.90
2023-08-17T17:57:42.890Z,31.87
2023-08-17T18:00:09.377Z,31.87
2023-08-17T18:02:35.945Z,31.87
2023-08-17T18:05:02.444Z,31.85
2023-08-17T18:07:29.203Z,31.83
2023-08-17T18:09:55.845Z,31.82
2023-08-17T18:12:22.316Z,31.74
2023-08-17T18:14:48.781Z,31.74
2023-08-17T18:17:15.220Z,31.72
2023-08-17T18:19:41.644Z,31.68
2023-08-17T18:22:08.195Z,31.63
2023-08-17T18:24:34.792Z,31.57
2023-08-17T18:27:04.299Z,31.51
2023-08-17T18:29:30.772Z,31.45
2023-08-17T18:31:57.285Z,31.42
2023-08-17T18:34:23.776Z,31.40
2023-08-17T18:36:50.251Z,31.36
2023-08-17T18:39:16.673Z,31.28
2023-08-17T18:41:43.180Z,31.23
2023-08-17T18:44:09.635Z,31.21
2023-08-17T18:46:36.057Z,31.17
2023-08-17T18:49:02.507Z,31.16
2023-08-17T18:51:29.030Z,31.11
2023-08-17T18:53:55.419Z,31.02
2023-08-17T18:56:21.859Z,30.92
2023-08-17T18:58:48.344Z,30.85
2023-08-17T19:01:14.912Z,30.81
2023-08-17T19:03:41.491Z,30.75
2023-08-17T19:06:07.933Z,30.65
2023-08-17T19:08:34.349Z,30.48
2023-08-17T19:11:00.807Z,30.41
2023-08-17T19:13:27.259Z,30.44
2023-08-17T19:15:53.785Z,30.47
2023-08-17T19:18:20.283Z,30.45
2023-08-17T19:20:46.768Z,30.49
2023-08-17T19:23:13.181Z,30.45
2023-08-17T19:25:39.704Z,30.45
2023-08-17T19:28:06.196Z,30.46
2023-08-17T19:30:32.690Z,30.43
2023-08-17T19:32:59.166Z,30.37
2023-08-17T19:35:25.653Z,30.36
2023-08-17T19:37:52.087Z,30.30
2023-08-17T19:40:18.517Z,30.28
2023-08-17T19:42:45.009Z,30.33
2023-08-17T19:45:11.493Z,30.28
2023-08-17T19:47:37.946Z,30.28
2023-08-17T19:50:04.462Z,30.21
2023-08-17T19:52:30.971Z,30.22
2023-08-17T19:54:57.434Z,30.17
2023-08-17T19:57:23.913Z,30.10
2023-08-17T19:59:53.500Z,30.07
2023-08-17T20:02:19.970Z,30.10
2023-08-17T20:04:46.595Z,30.05
2023-08-17T20:07:13.042Z,29.96
2023-08-17T20:09:39.489Z,29.95
2023-08-17T20:12:05.934Z,30.01
2023-08-17T20:14:32.371Z,30.02
2023-08-17T20:16:58.772Z,30.01
2023-08-17T20:19:25.209Z,29.94
2023-08-17T20:21:51.695Z,29.91
2023-08-17T20:24:18.217Z,29.86
2023-08-17T20:26:44.770Z,29.83
2023-08-17T20:29:11.411Z,29.80
2023-08-17T20:31:37.997Z,29.78
2023-08-17T20:34:04.565Z,29.77
2023-08-17T20:36:31.038Z,29.81
2023-08-17T20:38:57.538Z,29.80
2023-08-17T20:41:24.097Z,29.82
2023-08-17T20:43:50.597Z,29.83
2023-08-17T20:46:17.190Z,29.78
2023-08-17T20:48:43.706Z,29.75
2023-08-17T20:51:10.406Z,29.71
2023-08-17T20:53:36.996Z,29.62
2023-08-17T20:56:03.595Z,29.54
2023-08-17T20:58:30.074Z,29.56
2023-08-17T21:00:56.719Z,29.55
2023-08-17T21:03:23.301Z,29.56
2023-08-17T21:05:50.355Z,29.52
2023-08-17T21:08:19.244Z,29.54
2023-08-17T21:10:46.292Z,29.58
2023-08-17T21:13:13.466Z,29.55
2023-08-17T21:15:40.097Z,29.47
2023-08-17T21:18:06.650Z,29.40
2023-08-17T21:20:33.189Z,29.37
2023-08-17T21:22:59.708Z,29.40
2023-08-17T21:25:26.201Z,29.43
2023-08-17T21:27:52.696Z,29.44
2023-08-17T21:30:21.746Z,29.43
2023-08-17T21:32:48.294Z,29.41
2023-08-17T21:35:14.863Z,29.41
2023-08-17T21:37:41.391Z,29.41
2023-08-17T21:40:07.820Z,29.36
2023-08-17T21:42:34.353Z,29.28
2023-08-17T21:45:00.759Z,29.13
2023-08-17T21:47:27.413Z,29.11
2023-08-17T21:49:54.092Z,29.04
2023-08-17T21:52:20.602Z,29.06
2023-08-17T21:54:47.093Z,29.06
2023-08-17T21:57:13.510Z,29.09
2023-08-17T21:59:39.908Z,29.11
2023-08-17T22:02:06.976Z,29.10
2023-08-17T22:04:34.621Z,29.13
2023-08-17T22:07:01.028Z,29.17
2023-08-17T22:09:27.461Z,29.14
2023-08-17T22:11:53.903Z,29.14
2023-08-17T22:14:20.305Z,29.12
2023-08-17T22:16:46.770Z,29.03
2023-08-17T22:19:13.602Z,29.05
2023-08-17T22:21:40.070Z,29.08
2023-08-17T22:24:06.477Z,29.06
2023-08-17T22:26:32.911Z,29.08
2023-08-17T22:28:59.488Z,29.07
2023-08-17T22:31:26.060Z,29.06
2023-08-17T22:33:52.584Z,29.04
2023-08-17T22:36:19.033Z,29.01
2023-08-17T22:38:45.414Z,29.01
2023-08-17T22:41:11.804Z,29.03
2023-08-17T22:43:38.225Z,29.02
2023-08-17T22:46:04.640Z,29.01
2023-08-17T22:48:31.082Z,28.98
2023-08-17T22:50:57.509Z,28.93
2023-08-17T22:53:23.917Z,28.90
2023-08-17T22:55:50.344Z,28.91
2023-08-17T22:58:16.927Z,28.92
2023-08-17T23:00:43.362Z,28.91
2023-08-17T23:03:09.802Z,28.90
2023-08-17T23:05:36.244Z,28.89
2023-08-17T23:08:02.687Z,28.84
2023-08-17T23:10:29.248Z,28.73
2023-08-17T23:12:55.677Z,28.67
2023-08-17T23:15:22.077Z,28.70
2023-08-17T23:17:48.553Z,28.67
2023-08-17T23:20:15.017Z,28.67
2023-08-17T23:22:41.452Z,28.62
2023-08-17T23:25:07.933Z,28.59
2023-08-17T23:27:34.428Z,28.60
2023-08-17T23:30:00.913Z,28.62
2023-08-17T23:32:28.666Z,28.60
2023-08-17T23:34:55.458Z,28.52
2023-08-17T23:37:21.883Z,28.53
2023-08-17T23:39:48.330Z,28.54
2023-08-17T23:42:14.795Z,28.52
2023-08-17T23:44:41.228Z,28.49
2023-08-17T23:47:07.648Z,28.48
2023-08-17T23:49:34.077Z,28.51
2023-08-17T23:52:00.465Z,28.51
2023-08-17T23:54:26.880Z,28.42
2023-08-17T23:56:53.379Z,28.37
2023-08-17T23:59:19.890Z,28.31
